createdAt,value
2023-03-04T00:00:00.830Z,38.45
2023-03-04T00:02:28.088Z,38.80
2023-03-04T00:04:55.416Z,40.30
2023-03-04T00:07:22.763Z,35.30
2023-03-04T00:09:49.931Z,35.88
2023-03-04T00:12:17.157Z,39.05
2023-03-04T00:14:44.391Z,32.97
2023-03-04T00:17:11.654Z,33.08
2023-03-04T00:19:39.302Z,32.38
2023-03-04T00:22:06.770Z,32.67
2023-03-04T00:24:35.146Z,30.67
2023-03-04T00:27:02.474Z,30.77
2023-03-04T00:29:29.710Z,28.70
2023-03-04T00:31:57.046Z,27.30
2023-03-04T00:34:24.403Z,28.40
2023-03-04T00:36:51.989Z,31.60
2023-03-04T00:39:19.164Z,28.13
2023-03-04T00:41:46.482Z,29.73
2023-03-04T00:44:13.741Z,30.08
2023-03-04T00:46:40.972Z,29.17
2023-03-04T00:49:08.156Z,34.50
2023-03-04T00:51:35.414Z,30.33
2023-03-04T00:54:02.766Z,31.25
2023-03-04T00:56:30.043Z,31.48
2023-03-04T00:58:57.428Z,29.98
2023-03-04T01:01:24.652Z,32.88
2023-03-04T01:03:52.016Z,29.65
2023-03-04T01:06:19.412Z,29.90
2023-03-04T01:08:46.705Z,29.15
2023-03-04T01:11:14.330Z,30.58
2023-03-04T01:13:41.662Z,33.53
2023-03-04T01:16:13.021Z,26.80
2023-03-04T01:18:40.497Z,30.05
2023-03-04T01:21:09.139Z,30.10
2023-03-04T01:23:36.374Z,27.27
2023-03-04T01:26:03.672Z,25.80
2023-03-04T01:28:30.960Z,29.17
2023-03-04T01:30:58.158Z,27.45
2023-03-04T01:33:25.433Z,26.65
2023-03-04T01:35:52.758Z,29.65
2023-03-04T01:38:20.109Z,26.77
2023-03-04T01:40:48.632Z,26.75
2023-03-04T01:43:24.361Z,28.63
2023-03-04T01:45:53.236Z,28.20
2023-03-04T01:48:37.268Z,26.33
2023-03-04T01:51:06.393Z,30.35
2023-03-04T01:53:33.886Z,26.30
2023-03-04T01:56:11.004Z,27.17
2023-03-04T01:58:38.266Z,26.98
2023-03-04T02:01:05.477Z,28.33
2023-03-04T02:03:32.704Z,28.77
2023-03-04T02:06:00.054Z,35.55
2023-03-04T02:08:27.317Z,29.30
2023-03-04T02:10:55.048Z,30.27
2023-03-04T02:13:22.554Z,25.75
2023-03-04T02:15:49.886Z,26.17
2023-03-04T02:18:23.023Z,25.05
2023-03-04T02:21:05.607Z,27.52
2023-03-04T02:23:53.915Z,23.58
2023-03-04T02:26:25.028Z,26.42
2023-03-04T02:28:55.068Z,28.40
2023-03-04T02:31:35.281Z,24.65
2023-03-04T02:34:30.040Z,26.48
2023-03-04T02:36:58.101Z,25.75
2023-03-04T02:39:36.531Z,23.90
2023-03-04T02:42:04.827Z,24.15
2023-03-04T02:44:39.463Z,23.50
2023-03-04T02:47:09.734Z,22.65
2023-03-04T02:49:39.426Z,22.17
2023-03-04T02:52:18.538Z,23.83
2023-03-04T02:54:46.056Z,24.23
2023-03-04T02:57:15.339Z,21.05
2023-03-04T02:59:46.138Z,24.05
2023-03-04T03:02:18.130Z,22.15
2023-03-04T03:04:46.165Z,22.08
2023-03-04T03:07:15.830Z,21.83
2023-03-04T03:09:43.885Z,26.67
2023-03-04T03:12:11.153Z,25.45
2023-03-04T03:14:38.769Z,25.63
2023-03-04T03:17:07.939Z,25.05
2023-03-04T03:19:35.172Z,23.30
2023-03-04T03:22:05.927Z,23.52
2023-03-04T03:24:33.187Z,26.25
2023-03-04T03:27:00.486Z,27.50
2023-03-04T03:29:27.958Z,28.38
2023-03-04T03:31:57.136Z,26.38
2023-03-04T03:34:24.502Z,25.08
2023-03-04T03:36:51.966Z,30.30
2023-03-04T03:39:19.276Z,31.40
2023-03-04T03:41:46.538Z,31.85
2023-03-04T03:44:13.751Z,33.45
2023-03-04T03:46:41.040Z,34.47
2023-03-04T03:49:08.310Z,35.58
2023-03-04T03:51:35.586Z,31.52
2023-03-04T03:54:02.822Z,33.33
2023-03-04T03:56:30.011Z,30.10
2023-03-04T03:58:57.283Z,33.38
2023-03-04T04:01:24.466Z,38.85
2023-03-04T04:03:51.889Z,36.42
2023-03-04T04:06:19.676Z,33.47
2023-03-04T04:08:46.937Z,33.08
2023-03-04T04:11:14.218Z,33.97
2023-03-04T04:13:41.460Z,26.52
2023-03-04T04:16:09.665Z,31.25
2023-03-04T04:18:37.559Z,32.83
2023-03-04T04:21:05.233Z,27.33
2023-03-04T04:23:33.117Z,30.85
2023-03-04T04:26:00.413Z,28.95
2023-03-04T04:28:27.650Z,29.30
2023-03-04T04:30:55.009Z,28.65
2023-03-04T04:33:22.325Z,26.70
2023-03-04T04:35:49.674Z,27.95
2023-03-04T04:38:16.915Z,29.75
2023-03-04T04:40:44.255Z,31.48
2023-03-04T04:43:11.531Z,29.65
2023-03-04T04:45:38.797Z,33.85
2023-03-04T04:48:06.317Z,31.02
2023-03-04T04:50:33.511Z,30.40
2023-03-04T04:53:00.809Z,30.45
2023-03-04T04:55:28.443Z,32.65
2023-03-04T04:57:55.777Z,33.40
2023-03-04T05:00:23.087Z,33.42
2023-03-04T05:02:50.496Z,29.13
2023-03-04T05:05:17.901Z,32.35
2023-03-04T05:07:45.169Z,30.63
2023-03-04T05:10:12.466Z,27.85
2023-03-04T05:12:39.629Z,30.13
2023-03-04T05:15:07.350Z,28.88
2023-03-04T05:17:34.556Z,31.83
2023-03-04T05:20:02.280Z,29.83
2023-03-04T05:22:29.482Z,33.42
2023-03-04T05:24:57.371Z,30.52
2023-03-04T05:27:24.581Z,31.23
2023-03-04T05:29:52.020Z,31.67
2023-03-04T05:32:19.379Z,31.45
2023-03-04T05:34:46.749Z,34.15
2023-03-04T05:37:13.935Z,33.42
2023-03-04T05:39:41.157Z,39.97
2023-03-04T05:42:08.641Z,35.67
2023-03-04T05:44:35.907Z,28.55
2023-03-04T05:47:03.175Z,36.42
2023-03-04T05:49:30.460Z,35.40
2023-03-04T05:51:57.695Z,35.75
2023-03-04T05:54:24.913Z,32.22
2023-03-04T05:56:52.166Z,33.80
2023-03-04T05:59:20.917Z,30.48
2023-03-04T06:01:48.805Z,33.45
2023-03-04T06:04:16.337Z,31.95
2023-03-04T06:06:43.651Z,32.13
2023-03-04T06:09:10.926Z,33.80
2023-03-04T06:11:38.328Z,35.13
2023-03-04T06:14:05.659Z,32.15
2023-03-04T06:16:33.346Z,33.95
2023-03-04T06:19:00.578Z,32.97
2023-03-04T06:21:27.815Z,29.38
2023-03-04T06:23:55.123Z,32.10
2023-03-04T06:26:22.450Z,28.13
2023-03-04T06:28:49.719Z,31.27
2023-03-04T06:31:17.189Z,36.15
2023-03-04T06:33:44.499Z,39.67
2023-03-04T06:36:11.702Z,38.45
2023-03-04T06:38:38.894Z,36.05
2023-03-04T06:41:11.470Z,36.03
2023-03-04T06:43:39.292Z,38.63
2023-03-04T06:46:07.779Z,33.85
2023-03-04T06:48:35.113Z,36.15
2023-03-04T06:51:09.749Z,37.63
2023-03-04T06:53:37.441Z,36.40
2023-03-04T06:56:05.216Z,34.85
2023-03-04T06:58:32.762Z,38.85
2023-03-04T07:01:10.525Z,36.45
2023-03-04T07:03:37.796Z,36.17
2023-03-04T07:06:05.164Z,38.47
2023-03-04T07:08:32.350Z,35.78
2023-03-04T07:10:59.639Z,35.60
2023-03-04T07:13:26.803Z,34.40
2023-03-04T07:15:54.125Z,34.00
2023-03-04T07:18:21.369Z,31.15
2023-03-04T07:20:51.801Z,34.50
2023-03-04T07:23:19.576Z,31.80
2023-03-04T07:25:48.858Z,31.70
2023-03-04T07:28:16.605Z,32.40
2023-03-04T07:30:44.158Z,31.92
2023-03-04T07:33:11.654Z,32.08
2023-03-04T07:35:38.881Z,33.13
2023-03-04T07:38:06.273Z,33.50
2023-03-04T07:40:33.521Z,28.40
2023-03-04T07:43:00.725Z,31.02
2023-03-04T07:45:28.934Z,33.90
2023-03-04T07:47:58.009Z,28.40
2023-03-04T07:50:25.264Z,31.17
2023-03-04T07:52:52.655Z,31.90
2023-03-04T07:55:20.143Z,28.02
2023-03-04T07:57:48.356Z,31.73
2023-03-04T08:00:17.462Z,27.48
2023-03-04T08:02:44.831Z,33.55
2023-03-04T08:05:12.094Z,30.33
2023-03-04T08:07:39.355Z,29.63
2023-03-04T08:10:08.109Z,29.77
2023-03-04T08:12:36.273Z,27.73
2023-03-04T08:15:04.015Z,30.27
2023-03-04T08:17:31.323Z,28.02
2023-03-04T08:19:58.501Z,31.40
2023-03-04T08:22:25.800Z,25.38
2023-03-04T08:24:53.016Z,28.48
2023-03-04T08:27:20.420Z,26.05
2023-03-04T08:29:47.626Z,28.65
2023-03-04T08:32:14.907Z,31.90
2023-03-04T08:34:42.205Z,27.80
2023-03-04T08:37:09.489Z,27.90
2023-03-04T08:39:37.872Z,26.95
2023-03-04T08:42:05.115Z,35.05
2023-03-04T08:44:32.386Z,31.40
2023-03-04T08:46:59.630Z,27.58
2023-03-04T08:49:26.906Z,25.50
2023-03-04T08:51:54.140Z,28.38
2023-03-04T08:54:21.492Z,32.13
2023-03-04T08:56:48.884Z,30.83
2023-03-04T08:59:16.053Z,29.15
2023-03-04T09:01:43.514Z,26.75
2023-03-04T09:04:11.040Z,34.75
2023-03-04T09:06:38.376Z,29.60
2023-03-04T09:09:05.881Z,28.60
2023-03-04T09:11:33.132Z,35.35
2023-03-04T09:14:00.513Z,28.70
2023-03-04T09:16:27.972Z,31.30
2023-03-04T09:18:55.351Z,31.50
2023-03-04T09:21:22.677Z,31.92
2023-03-04T09:23:49.908Z,33.67
2023-03-04T09:26:27.301Z,29.73
2023-03-04T09:28:57.314Z,28.70
2023-03-04T09:31:25.409Z,32.47
2023-03-04T09:33:53.929Z,30.20
2023-03-04T09:36:21.726Z,34.20
2023-03-04T09:38:49.062Z,29.17
2023-03-04T09:41:21.304Z,28.58
2023-03-04T09:43:50.645Z,30.40
2023-03-04T09:46:45.492Z,31.30
2023-03-04T09:49:14.024Z,26.48
2023-03-04T09:51:51.319Z,29.25
2023-03-04T09:54:41.764Z,27.30
2023-03-04T09:57:41.030Z,32.10
2023-03-04T10:00:23.654Z,27.60
2023-03-04T10:03:12.251Z,27.33
2023-03-04T10:05:48.414Z,30.40
2023-03-04T10:08:40.517Z,34.08
2023-03-04T10:11:23.743Z,31.77
2023-03-04T10:14:14.864Z,27.85
2023-03-04T10:17:06.260Z,29.77
2023-03-04T10:19:56.999Z,30.10
2023-03-04T10:22:27.328Z,29.05
2023-03-04T10:24:57.648Z,31.75
2023-03-04T10:27:26.083Z,30.35
2023-03-04T10:29:53.402Z,32.25
2023-03-04T10:32:21.317Z,31.38
2023-03-04T10:34:48.641Z,29.42
2023-03-04T10:37:15.926Z,30.45
2023-03-04T10:39:45.439Z,34.22
2023-03-04T10:42:15.545Z,29.88
2023-03-04T10:44:55.348Z,25.17
2023-03-04T10:47:31.443Z,31.73
2023-03-04T10:50:04.707Z,28.92
2023-03-04T10:52:49.978Z,26.13
2023-03-04T10:55:27.501Z,27.83
2023-03-04T10:57:58.096Z,26.92
2023-03-04T11:00:32.229Z,24.98
2023-03-04T11:03:25.273Z,29.30
2023-03-04T11:06:24.585Z,26.23
2023-03-04T11:08:59.859Z,28.02
2023-03-04T11:11:37.817Z,27.30
2023-03-04T11:14:28.781Z,25.30
2023-03-04T11:17:01.911Z,23.65
2023-03-04T11:19:37.663Z,27.05
2023-03-04T11:22:05.936Z,25.40
2023-03-04T11:24:37.288Z,24.23
2023-03-04T11:27:20.831Z,25.98
2023-03-04T11:30:23.313Z,24.65
2023-03-04T11:35:27.387Z,28.90
2023-03-04T11:37:59.900Z,25.10
2023-03-04T11:40:42.184Z,28.75
2023-03-04T11:43:43.398Z,26.55
2023-03-04T11:46:30.091Z,27.33
2023-03-04T11:49:29.433Z,25.23
2023-03-04T11:52:11.411Z,26.48
2023-03-04T11:54:52.355Z,24.08
2023-03-04T11:57:25.866Z,26.58
2023-03-04T12:00:14.459Z,26.60
2023-03-04T12:02:59.710Z,28.02
2023-03-04T12:05:37.569Z,24.75
2023-03-04T12:08:21.864Z,28.27
2023-03-04T12:11:13.348Z,26.38
2023-03-04T12:14:21.560Z,31.88
2023-03-04T12:16:58.627Z,27.30
2023-03-04T12:19:35.148Z,25.77
2023-03-04T12:22:25.227Z,28.45
2023-03-04T12:24:58.570Z,29.77
2023-03-04T12:27:55.479Z,26.40
2023-03-04T12:30:45.141Z,26.33
2023-03-04T12:33:33.530Z,25.52
2023-03-04T12:36:19.448Z,26.98
2023-03-04T12:39:00.953Z,25.77
2023-03-04T12:41:37.935Z,26.15
2023-03-04T12:44:13.432Z,21.10
2023-03-04T12:47:28.952Z,24.25
2023-03-04T12:50:22.624Z,29.08
2023-03-04T12:53:04.632Z,25.95
2023-03-04T12:55:44.289Z,22.70
2023-03-04T12:58:21.177Z,37.63
2023-03-04T13:00:54.388Z,28.65
2023-03-04T13:03:31.332Z,36.05
2023-03-04T13:06:08.887Z,29.67
2023-03-04T13:08:59.692Z,27.80
2023-03-04T13:11:27.107Z,26.67
2023-03-04T13:14:05.070Z,23.73
2023-03-04T13:16:55.879Z,24.83
2023-03-04T13:19:49.484Z,25.90
2023-03-04T13:22:38.454Z,23.90
2023-03-04T13:25:36.478Z,32.60
2023-03-04T13:28:09.718Z,22.50
2023-03-04T13:30:39.992Z,23.27
2023-03-04T13:33:13.745Z,28.50
2023-03-04T13:35:47.033Z,24.35
2023-03-04T13:38:36.608Z,24.67
2023-03-04T13:41:27.179Z,24.85
2023-03-04T13:43:59.048Z,24.40
2023-03-04T13:46:27.623Z,21.65
2023-03-04T13:48:54.921Z,22.58
2023-03-04T13:51:31.105Z,25.80
2023-03-04T13:54:02.860Z,22.75
2023-03-04T13:56:38.052Z,28.35
2023-03-04T13:59:11.505Z,28.27
2023-03-04T14:01:41.423Z,30.17
2023-03-04T14:04:21.035Z,24.02
2023-03-04T14:06:54.227Z,24.10
2023-03-04T14:09:24.247Z,25.60
2023-03-04T14:11:54.442Z,29.95
2023-03-04T14:14:42.392Z,25.75
2023-03-04T14:17:21.490Z,26.65
2023-03-04T14:19:50.912Z,28.50
2023-03-04T14:22:30.070Z,30.48
2023-03-04T14:24:58.538Z,27.38
2023-03-04T14:27:25.818Z,28.65
2023-03-04T14:29:58.111Z,26.50
2023-03-04T14:32:27.012Z,30.38
2023-03-04T14:35:18.259Z,31.30
2023-03-04T14:38:03.925Z,27.95
2023-03-04T14:40:58.271Z,30.02
2023-03-04T14:43:26.201Z,27.83
2023-03-04T14:45:56.998Z,29.75
2023-03-04T14:48:32.470Z,32.72
2023-03-04T14:51:01.821Z,28.27
2023-03-04T14:53:31.233Z,27.20
2023-03-04T14:56:10.760Z,27.40
2023-03-04T14:58:50.453Z,23.77
2023-03-04T15:01:23.504Z,26.33
2023-03-04T15:04:11.899Z,24.30
2023-03-04T15:06:53.807Z,24.20
2023-03-04T15:09:27.299Z,24.45
2023-03-04T15:12:08.481Z,27.67
2023-03-04T15:14:43.575Z,25.88
2023-03-04T15:17:23.596Z,22.35
2023-03-04T15:20:06.036Z,27.30
2023-03-04T15:22:33.979Z,26.55
2023-03-04T15:25:01.528Z,28.75
2023-03-04T15:27:30.494Z,27.33
2023-03-04T15:30:00.811Z,27.17
2023-03-04T15:32:31.552Z,27.92
2023-03-04T15:34:59.991Z,25.17
2023-03-04T15:37:29.401Z,30.65
2023-03-04T15:39:57.676Z,28.13
2023-03-04T15:42:25.575Z,32.80
2023-03-04T15:44:52.780Z,24.67
2023-03-04T15:47:20.031Z,24.08
2023-03-04T15:49:47.741Z,27.77
2023-03-04T15:52:21.392Z,26.85
2023-03-04T15:54:49.492Z,30.08
2023-03-04T15:57:25.637Z,26.73
2023-03-04T15:59:53.582Z,25.55
2023-03-04T16:02:27.163Z,32.28
2023-03-04T16:04:54.721Z,28.70
2023-03-04T16:07:25.458Z,28.10
2023-03-04T16:09:59.724Z,27.88
2023-03-04T16:12:28.121Z,25.20
2023-03-04T16:14:55.666Z,31.25
2023-03-04T16:17:22.880Z,24.15
2023-03-04T16:19:50.187Z,26.05
2023-03-04T16:22:24.254Z,29.05
2023-03-04T16:24:52.413Z,22.00
2023-03-04T16:27:20.180Z,26.83
2023-03-04T16:29:47.386Z,29.58
2023-03-04T16:32:14.691Z,33.58
2023-03-04T16:34:41.923Z,27.30
2023-03-04T16:37:16.886Z,28.42
2023-03-04T16:39:46.256Z,28.00
2023-03-04T16:42:19.205Z,27.02
2023-03-04T16:44:46.813Z,23.90
2023-03-04T16:47:14.096Z,27.75
2023-03-04T16:49:41.707Z,27.90
2023-03-04T16:52:23.594Z,25.33
2023-03-04T16:54:51.066Z,30.35
2023-03-04T16:57:18.499Z,23.15
2023-03-04T16:59:46.222Z,26.75
2023-03-04T17:02:18.255Z,23.88
2023-03-04T17:07:13.382Z,33.17
2023-03-04T17:09:41.015Z,27.83
2023-03-04T17:12:10.937Z,27.15
2023-03-04T17:14:39.281Z,21.38
2023-03-04T17:17:07.739Z,27.27
2023-03-04T17:19:35.108Z,27.27
2023-03-04T17:22:02.710Z,29.63
2023-03-04T17:24:30.585Z,25.55
2023-03-04T17:26:58.087Z,25.00
2023-03-04T17:29:26.676Z,24.45
2023-03-04T17:31:53.940Z,24.35
2023-03-04T17:34:21.171Z,26.05
2023-03-04T17:36:48.430Z,28.65
2023-03-04T17:39:15.753Z,33.25
2023-03-04T17:41:43.050Z,26.95
2023-03-04T17:44:11.007Z,27.55
2023-03-04T17:46:39.344Z,27.75
2023-03-04T17:49:06.607Z,30.92
2023-03-04T17:51:36.859Z,29.35
2023-03-04T17:54:05.775Z,28.08
2023-03-04T17:56:34.043Z,25.23
2023-03-04T17:59:04.040Z,25.27
2023-03-04T18:01:31.599Z,26.30
2023-03-04T18:03:59.183Z,26.27
2023-03-04T18:06:26.422Z,29.48
2023-03-04T18:08:54.267Z,26.25
2023-03-04T18:11:23.634Z,29.65
2023-03-04T18:13:51.346Z,28.10
2023-03-04T18:16:23.631Z,25.17
2023-03-04T18:18:51.418Z,27.60
2023-03-04T18:21:19.786Z,26.98
2023-03-04T18:23:47.628Z,27.67
2023-03-04T18:26:15.710Z,23.75
2023-03-04T18:28:43.104Z,27.45
2023-03-04T18:31:10.850Z,25.20
2023-03-04T18:33:39.790Z,30.77
2023-03-04T18:36:09.570Z,25.35
2023-03-04T18:38:37.199Z,33.35
2023-03-04T18:41:07.240Z,27.17
2023-03-04T18:43:35.229Z,24.23
2023-03-04T18:46:06.987Z,27.25
2023-03-04T18:48:45.165Z,26.08
2023-03-04T18:51:12.581Z,32.10
2023-03-04T18:53:39.948Z,25.23
2023-03-04T18:56:15.488Z,24.77
2023-03-04T18:58:46.075Z,25.30
2023-03-04T19:01:15.107Z,35.60
2023-03-04T19:03:42.691Z,21.63
2023-03-04T19:06:10.098Z,33.33
2023-03-04T19:08:37.344Z,26.85
2023-03-04T19:11:06.073Z,25.48
2023-03-04T19:13:33.787Z,25.60
2023-03-04T19:16:01.088Z,26.15
2023-03-04T19:18:29.499Z,28.42
2023-03-04T19:20:59.965Z,26.73
2023-03-04T19:23:27.360Z,27.08
2023-03-04T19:25:54.787Z,26.55
2023-03-04T19:28:22.089Z,25.55
2023-03-04T19:30:49.386Z,27.27
2023-03-04T19:33:16.636Z,22.20
2023-03-04T19:35:46.878Z,26.02
2023-03-04T19:38:14.187Z,30.63
2023-03-04T19:40:42.235Z,23.38
2023-03-04T19:43:09.478Z,27.45
2023-03-04T19:45:36.777Z,25.15
2023-03-04T19:48:04.383Z,23.58
2023-03-04T19:50:32.456Z,24.13
2023-03-04T19:52:59.730Z,24.63
2023-03-04T19:55:27.023Z,24.95
2023-03-04T19:57:54.284Z,26.55
2023-03-04T20:00:23.901Z,21.83
2023-03-04T20:02:52.068Z,30.70
2023-03-04T20:05:19.426Z,22.98
2023-03-04T20:07:46.638Z,23.98
2023-03-04T20:10:14.596Z,22.70
2023-03-04T20:12:41.807Z,27.63
2023-03-04T20:15:09.499Z,21.75
2023-03-04T20:17:36.781Z,28.50
2023-03-04T20:20:04.202Z,33.13
2023-03-04T20:22:31.538Z,26.88
2023-03-04T20:24:58.966Z,21.42
2023-03-04T20:27:26.235Z,26.58
2023-03-04T20:29:53.637Z,31.33
2023-03-04T20:32:21.106Z,27.02
2023-03-04T20:34:50.867Z,26.48
2023-03-04T20:37:18.116Z,24.20
2023-03-04T20:39:46.636Z,25.98
2023-03-04T20:42:13.813Z,24.45
2023-03-04T20:44:41.084Z,23.80
2023-03-04T20:47:08.361Z,29.20
2023-03-04T20:49:35.660Z,26.25
2023-03-04T20:52:06.558Z,30.38
2023-03-04T20:54:38.633Z,24.20
2023-03-04T20:59:39.721Z,31.63
2023-03-04T21:02:09.372Z,30.00
2023-03-04T21:04:36.715Z,32.05
2023-03-04T21:07:04.330Z,29.27
2023-03-04T21:09:31.637Z,34.97
2023-03-04T21:12:00.811Z,27.70
2023-03-04T21:14:30.692Z,29.02
2023-03-04T21:17:01.257Z,27.58
2023-03-04T21:19:31.026Z,30.55
2023-03-04T21:21:59.903Z,28.73
2023-03-04T21:24:30.924Z,32.88
2023-03-04T21:26:58.825Z,31.60
2023-03-04T21:29:28.252Z,28.98
2023-03-04T21:32:13.297Z,29.13
2023-03-04T21:34:49.397Z,32.42
2023-03-04T21:37:16.657Z,32.58
2023-03-04T21:42:16.159Z,33.20
2023-03-04T21:44:51.619Z,30.95
2023-03-04T21:47:21.236Z,33.67
2023-03-04T21:49:48.676Z,34.58
2023-03-04T21:52:16.996Z,40.08
2023-03-04T21:54:44.213Z,37.67
2023-03-04T21:57:11.452Z,38.15
2023-03-04T21:59:39.105Z,33.72
2023-03-04T22:02:07.896Z,34.15
2023-03-04T22:04:35.630Z,37.30
2023-03-04T22:07:02.909Z,35.30
2023-03-04T22:09:30.168Z,34.70
2023-03-04T22:11:57.459Z,39.55
2023-03-04T22:14:24.858Z,33.05
2023-03-04T22:16:55.713Z,37.22
2023-03-04T22:19:25.163Z,38.95
2023-03-04T22:21:52.947Z,42.40
2023-03-04T22:24:21.026Z,38.63
2023-03-04T22:26:48.375Z,37.08
2023-03-04T22:29:15.641Z,38.40
2023-03-04T22:31:42.899Z,38.47
2023-03-04T22:34:13.155Z,37.40
2023-03-04T22:36:43.309Z,35.75
2023-03-04T22:39:14.062Z,36.13
2023-03-04T22:41:41.806Z,41.58
2023-03-04T22:44:09.048Z,33.70
2023-03-04T22:46:38.565Z,35.67
2023-03-04T22:49:11.208Z,35.30
2023-03-04T22:51:41.662Z,33.30
2023-03-04T22:54:12.311Z,38.00
2023-03-04T22:56:39.659Z,38.60
2023-03-04T22:59:06.991Z,36.13
2023-03-04T23:01:34.322Z,36.65
2023-03-04T23:04:01.994Z,39.40
2023-03-04T23:06:30.513Z,39.80
2023-03-04T23:08:58.830Z,36.95
2023-03-04T23:11:29.224Z,40.17
2023-03-04T23:13:57.579Z,40.63
2023-03-04T23:16:27.842Z,34.42
2023-03-04T23:18:56.202Z,42.47
2023-03-04T23:21:25.643Z,37.55
2023-03-04T23:23:53.570Z,41.05
2023-03-04T23:26:24.669Z,39.28
2023-03-04T23:28:52.256Z,41.93
2023-03-04T23:31:19.535Z,33.47
2023-03-04T23:33:47.879Z,40.33
2023-03-04T23:36:18.032Z,33.83
2023-03-04T23:38:47.497Z,44.42
2023-03-04T23:41:20.314Z,38.45
2023-03-04T23:43:48.270Z,40.53
2023-03-04T23:46:15.722Z,43.65
2023-03-04T23:48:46.430Z,40.78
2023-03-04T23:51:15.851Z,44.28
2023-03-04T23:53:43.729Z,44.15
2023-03-04T23:56:19.481Z,40.38
2023-03-04T23:58:47.817Z,42.55
